Time,TemperatureF,DewpointF,PressureIn,WindDirection,WindDirectionDegrees,WindSpeedMPH,WindSpeedGustMPH,Humidity,HourlyPrecipIn,Conditions,Clouds,dailyrainin,SoftwareType,DateUTC
2013-04-03 00:00:00,31.6,2.3,30.18,ENE,68,0.0,0.0,28,0.00,,---,0.00,VWS V14.01,2013-04-03 04:00:00,
2013-04-03 00:05:00,31.5,3.6,30.18,North,0,0.0,3.1,30,0.00,,---,0.00,VWS V14.01,2013-04-03 04:05:00,
2013-04-03 00:10:00,31.3,3.5,30.18,East,90,0.0,0.0,30,0.00,,---,0.00,VWS V14.01,2013-04-03 04:10:00,
2013-04-03 00:15:00,31.1,3.3,30.18,West,270,0.0,0.0,30,0.00,,---,0.00,VWS V14.01,2013-04-03 04:15:00,
2013-04-03 00:20:00,30.9,3.1,30.18,NNE,22,2.2,2.2,30,0.00,,---,0.00,VWS V14.01,2013-04-03 04:20:00,
2013-04-03 00:25:00,30.9,3.1,30.18,East,90,0.0,0.0,30,0.00,,---,0.00,VWS V14.01,2013-04-03 04:25:00,
2013-04-03 00:30:00,30.7,3.0,30.18,SW,225,0.0,0.0,30,0.00,,---,0.00,VWS V14.01,2013-04-03 04:30:00,
2013-04-03 00:35:00,30.6,2.8,30.18,NW,315,0.0,0.0,30,0.00,,---,0.00,VWS V14.01,2013-04-03 04:35:00,
2013-04-03 00:40:00,30.6,2.8,30.18,NNE,22,0.0,0.0,30,0.00,,---,0.00,VWS V14.01,2013-04-03 04:40:00,
2013-04-03 00:45:00,30.2,2.5,30.18,West,270,0.0,0.0,30,0.00,,---,0.00,VWS V14.01,2013-04-03 04:45:00,
2013-04-03 00:50:00,30.2,2.5,30.18,West,270,0.0,0.0,30,0.00,,---,0.00,VWS V14.01,2013-04-03 04:50:00,
2013-04-03 00:55:00,29.7,2.0,30.18,West,270,0.0,0.0,30,0.00,,---,0.00,VWS V14.01,2013-04-03 04:55:00,
2013-04-03 01:00:00,29.5,2.6,30.18,West,270,0.0,0.0,31,0.00,,---,0.00,VWS V14.01,2013-04-03 05:00:00,
2013-04-03 01:05:00,29.3,2.4,30.18,NW,315,3.6,3.6,31,0.00,,---,0.00,VWS V14.01,2013-04-03 05:05:00,
2013-04-03 01:10:00,29.1,2.3,30.18,East,90,0.0,0.0,31,0.00,,---,0.00,VWS V14.01,2013-04-03 05:10:00,
2013-04-03 01:15:00,28.6,1.8,30.18,East,90,0.0,0.0,31,0.00,,---,0.00,VWS V14.01,2013-04-03 05:15:00,
2013-04-03 01:20:00,28.6,2.5,30.18,North,0,0.0,0.0,32,0.00,,---,0.00,VWS V14.01,2013-04-03 05:20:00,
2013-04-03 01:25:00,28.8,2.6,30.18,NNE,22,0.0,0.0,32,0.00,,---,0.00,VWS V14.01,2013-04-03 05:25:00,
2013-04-03 01:30:00,28.6,2.5,30.18,North,0,0.0,0.0,32,0.00,,---,0.00,VWS V14.01,2013-04-03 05:30:00,
2013-04-03 01:35:00,29.1,3.0,30.18,NE,45,0.0,0.0,32,0.00,,---,0.00,VWS V14.01,2013-04-03 05:35:00,
2013-04-03 01:40:00,29.5,2.6,30.18,North,0,3.6,6.3,31,0.00,,---,0.00,VWS V14.01,2013-04-03 05:40:00,
2013-04-03 01:45:00,30.0,2.3,30.18,NNE,22,4.0,6.3,30,0.00,,---,0.00,VWS V14.01,2013-04-03 05:45:00,
2013-04-03 01:50:00,30.0,0.9,30.18,North,0,0.0,0.0,28,0.00,,---,0.00,VWS V14.01,2013-04-03 05:50:00,
2013-04-03 01:55:00,30.7,-0.9,30.18,North,0,0.0,5.4,25,0.00,,---,0.00,VWS V14.01,2013-04-03 05:55:00,
2013-04-03 02:00:00,30.7,-0.9,30.18,North,0,0.0,2.7,25,0.00,,---,0.00,VWS V14.01,2013-04-03 06:00:00,
2013-04-03 02:05:00,30.7,-0.9,30.18,NE,45,3.6,4.9,25,0.00,,---,0.00,VWS V14.01,2013-04-03 06:05:00,
2013-04-03 02:10:00,30.9,-0.8,30.18,NNE,22,3.1,4.0,25,0.00,,---,0.00,VWS V14.01,2013-04-03 06:10:00,
2013-04-03 02:15:00,30.7,1.5,30.18,NNW,338,3.6,3.6,28,0.00,,---,0.00,VWS V14.01,2013-04-03 06:15:00,
2013-04-03 02:20:00,30.6,-1.1,30.18,NW,315,0.0,0.0,25,0.00,,---,0.00,VWS V14.01,2013-04-03 06:20:00,
2013-04-03 02:25:00,30.6,-1.1,30.21,North,0,3.1,4.0,25,0.00,,---,0.00,VWS V14.01,2013-04-03 06:25:00,
2013-04-03 02:30:00,30.4,-1.2,30.21,NW,315,4.0,4.0,25,0.00,,---,0.00,VWS V14.01,2013-04-03 06:30:00,
2013-04-03 02:35:00,30.0,0.9,30.21,South,180,3.1,4.0,28,0.00,,---,0.00,VWS V14.01,2013-04-03 06:35:00,
2013-04-03 02:40:00,30.2,1.0,30.18,NE,45,0.0,7.2,28,0.00,,---,0.00,VWS V14.01,2013-04-03 06:40:00,
2013-04-03 02:45:00,30.2,1.0,30.18,NW,315,0.0,2.2,28,0.00,,---,0.00,VWS V14.01,2013-04-03 06:45:00,
2013-04-03 02:50:00,30.2,2.5,30.18,West,270,2.7,3.6,30,0.00,,---,0.00,VWS V14.01,2013-04-03 06:50:00,
2013-04-03 02:55:00,30.2,1.0,30.21,NE,45,2.2,4.0,28,0.00,,---,0.00,VWS V14.01,2013-04-03 06:55:00,
2013-04-03 03:00:00,30.0,2.3,30.21,NE,45,3.1,3.1,30,0.00,,---,0.00,VWS V14.01,2013-04-03 07:00:00,
2013-04-03 03:05:00,29.8,2.2,30.21,NE,45,3.1,5.8,30,0.00,,---,0.00,VWS V14.01,2013-04-03 07:05:00,
2013-04-03 03:10:00,29.5,2.6,30.18,NNW,338,3.1,3.6,31,0.00,,---,0.00,VWS V14.01,2013-04-03 07:10:00,
2013-04-03 03:16:00,29.5,1.9,30.18,North,0,0.0,4.0,30,0.00,,---,0.00,VWS V14.01,2013-04-03 07:16:00,
2013-04-03 03:21:00,29.1,2.3,30.18,North,0,2.2,2.7,31,0.00,,---,0.00,VWS V14.01,2013-04-03 07:21:00,
2013-04-03 03:26:00,29.1,2.3,30.18,NE,45,8.7,8.7,31,0.00,,---,0.00,VWS V14.01,2013-04-03 07:26:00,
2013-04-03 03:31:00,29.3,2.4,30.18,North,0,0.0,0.0,31,0.00,,---,0.00,VWS V14.01,2013-04-03 07:31:00,
2013-04-03 03:36:00,29.1,2.3,30.18,North,0,8.1,8.1,31,0.00,,---,0.00,VWS V14.01,2013-04-03 07:36:00,
2013-04-03 03:41:00,29.3,1.7,30.21,NW,315,0.0,0.0,30,0.00,,---,0.00,VWS V14.01,2013-04-03 07:41:00,
2013-04-03 03:46:00,29.1,2.3,30.21,North,0,2.7,2.7,31,0.00,,---,0.00,VWS V14.01,2013-04-03 07:46:00,
2013-04-03 03:51:00,29.3,2.4,30.21,NW,315,3.1,3.1,31,0.00,,---,0.00,VWS V14.01,2013-04-03 07:51:00,
2013-04-03 03:56:00,29.3,2.4,30.21,NW,315,0.0,2.2,31,0.00,,---,0.00,VWS V14.01,2013-04-03 07:56:00,
2013-04-03 04:01:00,29.3,2.4,30.21,NW,315,4.0,4.0,31,0.00,,---,0.00,VWS V14.01,2013-04-03 08:01:00,
2013-04-03 04:06:00,29.1,1.6,30.21,NE,45,8.7,8.7,30,0.00,,---,0.00,VWS V14.01,2013-04-03 08:06:00,
2013-04-03 04:11:00,29.1,0.1,30.21,NNE,22,7.6,7.6,28,0.00,,---,0.00,VWS V14.01,2013-04-03 08:11:00,
2013-04-03 04:16:00,28.9,-0.1,30.21,North,0,0.0,2.2,28,0.00,,---,0.00,VWS V14.01,2013-04-03 08:16:00,
2013-04-03 04:21:00,28.9,-0.1,30.21,NW,315,4.9,6.3,28,0.00,,---,0.00,VWS V14.01,2013-04-03 08:21:00,
2013-04-03 04:26:00,28.8,-2.6,30.21,NNE,22,2.7,2.7,25,0.00,,---,0.00,VWS V14.01,2013-04-03 08:26:00,
2013-04-03 04:31:00,28.6,-4.5,30.21,NNW,338,3.6,3.6,23,0.00,,---,0.00,VWS V14.01,2013-04-03 08:31:00,
2013-04-03 04:36:00,28.6,-2.8,30.21,NW,315,2.2,2.2,25,0.00,,---,0.00,VWS V14.01,2013-04-03 08:36:00,
2013-04-03 04:41:00,28.2,-2.2,30.21,North,0,4.0,4.5,26,0.00,,---,0.00,VWS V14.01,2013-04-03 08:41:00,
2013-04-03 04:46:00,28.4,-2.1,30.21,North,0,3.1,3.1,26,0.00,,---,0.00,VWS V14.01,2013-04-03 08:46:00,
2013-04-03 04:51:00,28.4,-2.1,30.21,SW,225,3.1,3.1,26,0.00,,---,0.00,VWS V14.01,2013-04-03 08:51:00,
2013-04-03 04:56:00,28.2,-2.2,30.21,North,0,6.3,6.3,26,0.00,,---,0.00,VWS V14.01,2013-04-03 08:56:00,
2013-04-03 05:01:00,28.2,-4.8,30.21,East,90,2.2,2.7,23,0.00,,---,0.00,VWS V14.01,2013-04-03 09:01:00,
2013-04-03 05:06:00,28.0,-5.0,30.21,West,270,3.1,5.4,23,0.00,,---,0.00,VWS V14.01,2013-04-03 09:06:00,
2013-04-03 05:11:00,28.2,-4.8,30.21,NNW,338,0.0,0.0,23,0.00,,---,0.00,VWS V14.01,2013-04-03 09:11:00,
2013-04-03 05:16:00,28.2,-4.8,30.21,North,0,4.9,5.8,23,0.00,,---,0.00,VWS V14.01,2013-04-03 09:16:00,
2013-04-03 05:21:00,28.0,-5.0,30.21,NE,45,5.4,5.4,23,0.00,,---,0.00,VWS V14.01,2013-04-03 09:21:00,
2013-04-03 05:26:00,28.2,-4.8,30.21,East,90,3.6,8.7,23,0.00,,---,0.00,VWS V14.01,2013-04-03 09:26:00,
2013-04-03 05:31:00,28.0,-5.0,30.21,North,0,0.0,4.0,23,0.00,,---,0.00,VWS V14.01,2013-04-03 09:31:00,
2013-04-03 05:36:00,27.9,-5.1,30.21,NW,315,3.1,3.6,23,0.00,,---,0.00,VWS V14.01,2013-04-03 09:36:00,
2013-04-03 05:41:00,27.9,-5.1,30.24,NNW,338,4.0,4.0,23,0.00,,---,0.00,VWS V14.01,2013-04-03 09:41:00,
2013-04-03 05:46:00,27.7,-5.3,30.24,NW,315,2.7,2.7,23,0.00,,---,0.00,VWS V14.01,2013-04-03 09:46:00,
2013-04-03 05:51:00,27.7,-5.3,30.24,North,0,0.0,3.1,23,0.00,,---,0.00,VWS V14.01,2013-04-03 09:51:00,
2013-04-03 05:56:00,27.9,-5.1,30.24,SW,225,3.1,4.0,23,0.00,,---,0.00,VWS V14.01,2013-04-03 09:56:00,
2013-04-03 06:01:00,27.9,-5.1,30.24,South,180,3.1,3.1,23,0.00,,---,0.00,VWS V14.01,2013-04-03 10:01:00,
2013-04-03 06:06:00,27.7,-5.3,30.24,NNE,22,0.0,4.9,23,0.00,,---,0.00,VWS V14.01,2013-04-03 10:06:00,
2013-04-03 06:12:00,27.9,-5.1,30.24,West,270,5.8,5.8,23,0.00,,---,0.00,VWS V14.01,2013-04-03 10:12:00,
2013-04-03 06:17:00,27.7,-5.3,30.24,North,0,4.0,5.4,23,0.00,,---,0.00,VWS V14.01,2013-04-03 10:17:00,
2013-04-03 06:22:00,27.9,-5.1,30.24,NW,315,6.7,6.7,23,0.00,,---,0.00,VWS V14.01,2013-04-03 10:22:00,
2013-04-03 06:27:00,28.0,-5.0,30.27,NW,315,2.7,4.9,23,0.00,,---,0.00,VWS V14.01,2013-04-03 10:27:00,
2013-04-03 06:32:00,27.9,-5.1,30.27,North,0,4.0,4.0,23,0.00,,---,0.00,VWS V14.01,2013-04-03 10:32:00,
2013-04-03 06:37:00,28.0,-5.0,30.27,NW,315,3.1,4.0,23,0.00,,---,0.00,VWS V14.01,2013-04-03 10:37:00,
2013-04-03 06:42:00,28.0,-5.0,30.27,North,0,0.0,0.0,23,0.00,,---,0.00,VWS V14.01,2013-04-03 10:42:00,
2013-04-03 06:47:00,28.2,-4.8,30.27,North,0,4.0,4.0,23,0.00,,---,0.00,VWS V14.01,2013-04-03 10:47:00,
2013-04-03 06:52:00,28.0,-5.0,30.27,West,270,7.6,7.6,23,0.00,,---,0.00,VWS V14.01,2013-04-03 10:52:00,
2013-04-03 06:57:00,28.4,-4.7,30.27,West,270,4.0,4.9,23,0.00,,---,0.00,VWS V14.01,2013-04-03 10:57:00,
2013-04-03 07:02:00,28.2,-4.8,30.27,NNW,338,0.0,2.2,23,0.00,,---,0.00,VWS V14.01,2013-04-03 11:02:00,
2013-04-03 07:07:00,28.0,-5.0,30.27,NW,315,2.7,2.7,23,0.00,,---,0.00,VWS V14.01,2013-04-03 11:07:00,
2013-04-03 07:12:00,28.4,-4.7,30.27,SW,225,2.7,2.7,23,0.00,,---,0.00,VWS V14.01,2013-04-03 11:12:00,
2013-04-03 07:17:00,28.4,-4.7,30.27,East,90,3.1,3.1,23,0.00,,---,0.00,VWS V14.01,2013-04-03 11:17:00,
2013-04-03 07:22:00,28.2,-4.8,30.27,NE,45,3.1,4.5,23,0.00,,---,0.00,VWS V14.01,2013-04-03 11:22:00,
2013-04-03 07:27:00,28.2,-4.8,30.27,West,270,0.0,4.0,23,0.00,,---,0.00,VWS V14.01,2013-04-03 11:27:00,
2013-04-03 07:32:00,28.0,-2.4,30.27,NE,45,4.9,4.9,26,0.00,,---,0.00,VWS V14.01,2013-04-03 11:32:00,
2013-04-03 07:37:00,28.0,-2.4,30.27,North,0,8.1,8.1,26,0.00,,---,0.00,VWS V14.01,2013-04-03 11:37:00,
2013-04-03 07:42:00,28.4,-2.1,30.30,NNW,338,3.1,3.6,26,0.00,,---,0.00,VWS V14.01,2013-04-03 11:42:00,
2013-04-03 07:47:00,28.4,-4.7,30.30,West,270,2.7,4.9,23,0.00,,---,0.00,VWS V14.01,2013-04-03 11:47:00,
2013-04-03 07:52:00,28.4,-2.1,30.30,NW,315,4.0,4.0,26,0.00,,---,0.00,VWS V14.01,2013-04-03 11:52:00,
2013-04-03 07:57:00,28.6,-2.8,30.27,North,0,3.6,3.6,25,0.00,,---,0.00,VWS V14.01,2013-04-03 11:57:00,
2013-04-03 08:02:00,28.9,-2.5,30.27,NE,45,5.4,5.4,25,0.00,,---,0.00,VWS V14.01,2013-04-03 12:02:00,
2013-04-03 08:07:00,29.3,-2.2,30.27,SW,225,4.0,5.4,25,0.00,,---,0.00,VWS V14.01,2013-04-03 12:07:00,
2013-04-03 08:12:00,29.7,-1.8,30.30,South,180,2.2,2.7,25,0.00,,---,0.00,VWS V14.01,2013-04-03 12:12:00,
2013-04-03 08:17:00,29.8,-3.4,30.30,NNW,338,3.6,4.0,23,0.00,,---,0.00,VWS V14.01,2013-04-03 12:17:00,
2013-04-03 08:22:00,30.0,-3.3,30.30,SW,225,0.0,3.1,23,0.00,,---,0.00,VWS V14.01,2013-04-03 12:22:00,
2013-04-03 08:27:00,30.6,-2.8,30.30,North,0,2.2,3.1,23,0.00,,---,0.00,VWS V14.01,2013-04-03 12:27:00,
2013-04-03 08:32:00,30.7,-2.7,30.30,WNW,292,3.1,4.9,23,0.00,,---,0.00,VWS V14.01,2013-04-03 12:32:00,
2013-04-03 08:37:00,31.1,-2.4,30.30,North,0,2.7,8.3,23,0.00,,---,0.00,VWS V14.01,2013-04-03 12:37:00,
2013-04-03 08:42:00,31.5,-2.0,30.30,North,0,8.1,8.1,23,0.00,,---,0.00,VWS V14.01,2013-04-03 12:42:00,
2013-04-03 08:47:00,32.2,-1.4,30.30,East,90,6.3,6.3,23,0.00,,---,0.00,VWS V14.01,2013-04-03 12:47:00,
2013-04-03 08:52:00,32.2,-1.4,30.30,NE,45,4.0,4.0,23,0.00,,---,0.00,VWS V14.01,2013-04-03 12:52:00,
2013-04-03 08:57:00,32.2,-1.4,30.30,SE,135,0.0,4.9,23,0.00,,---,0.00,VWS V14.01,2013-04-03 12:57:00,
2013-04-03 09:02:00,32.2,-1.4,30.30,SE,135,2.7,4.0,23,0.00,,---,0.00,VWS V14.01,2013-04-03 13:02:00,
2013-04-03 09:07:00,32.7,-1.0,30.30,North,0,3.6,3.6,23,0.00,,---,0.00,VWS V14.01,2013-04-03 13:07:00,
2013-04-03 09:12:00,33.1,-0.7,30.30,NW,315,3.6,3.6,23,0.00,,---,0.00,VWS V14.01,2013-04-03 13:12:00,
2013-04-03 09:17:00,33.1,-0.7,30.30,NW,315,4.0,6.7,23,0.00,,---,0.00,VWS V14.01,2013-04-03 13:17:00,
2013-04-03 09:22:00,33.3,-0.5,30.30,West,270,3.6,3.6,23,0.00,,---,0.00,VWS V14.01,2013-04-03 13:22:00,
2013-04-03 09:27:00,32.7,-1.0,30.30,NE,45,3.1,7.2,23,0.00,,---,0.00,VWS V14.01,2013-04-03 13:27:00,
2013-04-03 09:32:00,33.3,-0.5,30.30,NNE,22,5.4,9.6,23,0.00,,---,0.00,VWS V14.01,2013-04-03 13:32:00,
2013-04-03 09:37:00,33.6,-0.2,30.30,West,270,2.7,8.1,23,0.00,,---,0.00,VWS V14.01,2013-04-03 13:37:00,
2013-04-03 09:42:00,33.6,-0.2,30.30,West,270,5.4,5.4,23,0.00,,---,0.00,VWS V14.01,2013-04-03 13:42:00,
2013-04-03 09:47:00,34.0,-0.9,30.30,NE,45,7.2,7.2,22,0.00,,---,0.00,VWS V14.01,2013-04-03 13:47:00,
2013-04-03 09:52:00,33.3,-0.5,30.30,NE,45,3.6,8.3,23,0.00,,---,0.00,VWS V14.01,2013-04-03 13:52:00,
2013-04-03 09:57:00,34.0,-0.9,30.30,NW,315,3.1,8.3,22,0.00,,---,0.00,VWS V14.01,2013-04-03 13:57:00,
2013-04-03 10:02:00,34.3,-0.6,30.30,NNE,22,5.4,7.6,22,0.00,,---,0.00,VWS V14.01,2013-04-03 14:02:00,
2013-04-03 10:07:00,33.8,-1.0,30.30,NW,315,3.6,7.2,22,0.00,,---,0.00,VWS V14.01,2013-04-03 14:07:00,
2013-04-03 10:12:00,34.5,-0.4,30.30,NW,315,7.6,7.6,22,0.00,,---,0.00,VWS V14.01,2013-04-03 14:12:00,
2013-04-03 10:17:00,34.0,-0.9,30.30,NNW,338,3.6,5.8,22,0.00,,---,0.00,VWS V14.01,2013-04-03 14:17:00,
2013-04-03 10:22:00,34.0,-0.9,30.30,NE,45,4.0,5.8,22,0.00,,---,0.00,VWS V14.01,2013-04-03 14:22:00,
2013-04-03 10:27:00,34.2,-0.7,30.33,NE,45,2.2,4.5,22,0.00,,---,0.00,VWS V14.01,2013-04-03 14:27:00,
2013-04-03 10:32:00,35.4,0.4,30.33,NW,315,0.0,3.1,22,0.00,,---,0.00,VWS V14.01,2013-04-03 14:32:00,
2013-04-03 10:37:00,35.6,0.5,30.33,NNW,338,2.2,6.3,22,0.00,,---,0.00,VWS V14.01,2013-04-03 14:37:00,
2013-04-03 10:42:00,35.8,0.7,30.33,NW,315,5.8,8.7,22,0.00,,---,0.00,VWS V14.01,2013-04-03 14:42:00,
2013-04-03 10:47:00,34.7,-0.2,30.33,WNW,292,2.2,4.9,22,0.00,,---,0.00,VWS V14.01,2013-04-03 14:47:00,
2013-04-03 10:52:00,34.3,-0.6,30.33,NNW,338,5.4,11.0,22,0.00,,---,0.00,VWS V14.01,2013-04-03 14:52:00,
2013-04-03 10:57:00,34.3,-0.6,30.33,North,0,8.3,10.5,22,0.00,,---,0.00,VWS V14.01,2013-04-03 14:57:00,
2013-04-03 11:02:00,34.2,-0.7,30.33,NW,315,4.0,7.6,22,0.00,,---,0.00,VWS V14.01,2013-04-03 15:02:00,
2013-04-03 11:07:00,33.1,-0.7,30.33,North,0,5.8,8.1,23,0.00,,---,0.00,VWS V14.01,2013-04-03 15:07:00,
2013-04-03 11:12:00,33.6,-0.2,30.36,West,270,6.3,7.6,23,0.00,,---,0.00,VWS V14.01,2013-04-03 15:12:00,
2013-04-03 11:17:00,32.2,-1.4,30.36,NNW,338,4.9,11.0,23,0.00,,---,0.00,VWS V14.01,2013-04-03 15:17:00,
2013-04-03 11:22:00,32.4,0.5,30.36,North,0,4.9,5.4,25,0.00,,---,0.00,VWS V14.01,2013-04-03 15:22:00,
2013-04-03 11:27:00,32.5,0.6,30.36,SW,225,5.8,7.6,25,0.00,,---,0.00,VWS V14.01,2013-04-03 15:27:00,
2013-04-03 11:32:00,31.6,-0.1,30.36,NNW,338,8.7,10.1,25,0.00,,---,0.00,VWS V14.01,2013-04-03 15:32:00,
2013-04-03 11:37:00,32.2,0.3,30.36,North,0,9.6,9.6,25,0.00,,---,0.00,VWS V14.01,2013-04-03 15:37:00,
2013-04-03 11:42:00,31.8,0.0,30.36,North,0,2.7,8.7,25,0.00,,---,0.00,VWS V14.01,2013-04-03 15:42:00,
2013-04-03 11:47:00,32.5,0.6,30.36,South,180,4.9,8.1,25,0.00,,---,0.00,VWS V14.01,2013-04-03 15:47:00,
2013-04-03 11:52:00,32.7,-1.0,30.36,NW,315,2.7,7.2,23,0.00,,---,0.00,VWS V14.01,2013-04-03 15:52:00,
2013-04-03 11:58:00,33.1,-0.7,30.36,North,0,9.2,9.2,23,0.00,,---,0.00,VWS V14.01,2013-04-03 15:58:00,
2013-04-03 12:02:00,33.6,1.6,30.36,South,180,3.6,3.6,25,0.00,,---,0.00,VWS V14.01,2013-04-03 16:02:00,
2013-04-03 12:08:00,32.9,-0.8,30.36,WSW,248,4.5,6.3,23,0.00,,---,0.00,VWS V14.01,2013-04-03 16:08:00,
2013-04-03 12:12:00,32.9,-0.8,30.39,West,270,3.1,8.1,23,0.00,,---,0.00,VWS V14.01,2013-04-03 16:12:00,
2013-04-03 12:18:00,33.1,-0.7,30.39,North,0,7.6,9.6,23,0.00,,---,0.00,VWS V14.01,2013-04-03 16:18:00,
2013-04-03 12:23:00,32.7,-1.0,30.39,North,0,8.3,8.3,23,0.00,,---,0.00,VWS V14.01,2013-04-03 16:23:00,
2013-04-03 12:28:00,33.6,-0.2,30.39,East,90,3.1,5.8,23,0.00,,---,0.00,VWS V14.01,2013-04-03 16:28:00,
2013-04-03 12:33:00,33.8,-1.0,30.39,North,0,8.1,8.1,22,0.00,,---,0.00,VWS V14.01,2013-04-03 16:33:00,
2013-04-03 12:38:00,33.1,-0.7,30.39,NE,45,7.6,7.6,23,0.00,,---,0.00,VWS V14.01,2013-04-03 16:38:00,
2013-04-03 12:43:00,34.5,-0.4,30.39,SW,225,4.9,5.4,22,0.00,,---,0.00,VWS V14.01,2013-04-03 16:43:00,
2013-04-03 12:48:00,35.1,0.1,30.39,NNE,22,9.6,9.6,22,0.00,,---,0.00,VWS V14.01,2013-04-03 16:48:00,
2013-04-03 12:53:00,35.8,0.7,30.39,South,180,2.7,3.1,22,0.00,,---,0.00,VWS V14.01,2013-04-03 16:53:00,
2013-04-03 12:58:00,34.3,-0.6,30.39,NE,45,3.1,5.8,22,0.00,,---,0.00,VWS V14.01,2013-04-03 16:58:00,
2013-04-03 13:03:00,34.5,-0.4,30.39,NW,315,2.7,2.7,22,0.00,,---,0.00,VWS V14.01,2013-04-03 17:03:00,
2013-04-03 13:08:00,34.5,-0.4,30.39,WNW,292,12.3,12.3,22,0.00,,---,0.00,VWS V14.01,2013-04-03 17:08:00,
2013-04-03 13:13:00,34.0,-0.9,30.39,South,180,2.7,5.4,22,0.00,,---,0.00,VWS V14.01,2013-04-03 17:13:00,
2013-04-03 13:18:00,34.3,-0.6,30.39,WNW,292,5.8,5.8,22,0.00,,---,0.00,VWS V14.01,2013-04-03 17:18:00,
2013-04-03 13:23:00,33.1,-0.7,30.39,SW,225,3.1,3.6,23,0.00,,---,0.00,VWS V14.01,2013-04-03 17:23:00,
2013-04-03 13:28:00,32.2,-1.4,30.39,SE,135,3.1,8.3,23,0.00,,---,0.00,VWS V14.01,2013-04-03 17:28:00,
2013-04-03 13:33:00,33.1,-0.7,30.39,North,0,2.7,2.7,23,0.00,,---,0.00,VWS V14.01,2013-04-03 17:33:00,
2013-04-03 13:38:00,34.0,-0.9,30.39,West,270,4.0,6.3,22,0.00,,---,0.00,VWS V14.01,2013-04-03 17:38:00,
2013-04-03 13:43:00,34.9,-0.1,30.39,North,0,8.3,8.3,22,0.00,,---,0.00,VWS V14.01,2013-04-03 17:43:00,
2013-04-03 13:48:00,35.8,0.7,30.39,NE,45,5.4,8.3,22,0.00,,---,0.00,VWS V14.01,2013-04-03 17:48:00,
2013-04-03 13:53:00,35.4,0.4,30.39,NNW,338,7.2,7.2,22,0.00,,---,0.00,VWS V14.01,2013-04-03 17:53:00,
2013-04-03 13:58:00,34.9,-0.1,30.39,East,90,4.0,4.0,22,0.00,,---,0.00,VWS V14.01,2013-04-03 17:58:00,
2013-04-03 14:03:00,35.4,0.4,30.39,NW,315,10.5,10.5,22,0.00,,---,0.00,VWS V14.01,2013-04-03 18:03:00,
2013-04-03 14:08:00,34.3,-0.6,30.39,North,0,4.0,7.2,22,0.00,,---,0.00,VWS V14.01,2013-04-03 18:08:00,
2013-04-03 14:13:00,35.2,0.2,30.41,West,270,3.6,7.6,22,0.00,,---,0.00,VWS V14.01,2013-04-03 18:13:00,
2013-04-03 14:18:00,35.1,0.1,30.41,NE,45,4.0,8.1,22,0.00,,---,0.00,VWS V14.01,2013-04-03 18:18:00,
2013-04-03 14:23:00,34.5,-0.4,30.41,East,90,6.3,7.6,22,0.00,,---,0.00,VWS V14.01,2013-04-03 18:23:00,
2013-04-03 14:28:00,34.5,-0.4,30.41,East,90,2.7,2.7,22,0.00,,---,0.00,VWS V14.01,2013-04-03 18:28:00,
2013-04-03 14:33:00,33.3,1.2,30.41,NW,315,5.8,5.8,25,0.00,,---,0.00,VWS V14.01,2013-04-03 18:33:00,
2013-04-03 14:38:00,34.3,2.2,30.41,SSE,158,3.6,8.1,25,0.00,,---,0.00,VWS V14.01,2013-04-03 18:38:00,
2013-04-03 14:43:00,33.8,1.7,30.41,NE,45,5.8,11.0,25,0.00,,---,0.00,VWS V14.01,2013-04-03 18:43:00,
2013-04-03 14:48:00,33.6,1.6,30.41,SSW,202,2.7,3.1,25,0.00,,---,0.00,VWS V14.01,2013-04-03 18:48:00,
2013-04-03 14:53:00,34.3,-0.6,30.41,NE,45,4.9,5.4,22,0.00,,---,0.00,VWS V14.01,2013-04-03 18:53:00,
2013-04-03 14:58:00,34.9,-0.1,30.41,NW,315,7.2,7.2,22,0.00,,---,0.00,VWS V14.01,2013-04-03 18:58:00,
2013-04-03 15:03:00,33.8,-1.0,30.41,East,90,4.0,10.1,22,0.00,,---,0.00,VWS V14.01,2013-04-03 19:03:00,
2013-04-03 15:08:00,34.0,-0.9,30.41,NNW,338,4.0,4.5,22,0.00,,---,0.00,VWS V14.01,2013-04-03 19:08:00,
2013-04-03 15:13:00,33.6,-0.2,30.41,North,0,3.6,5.8,23,0.00,,---,0.00,VWS V14.01,2013-04-03 19:13:00,
2013-04-03 15:18:00,34.3,-0.6,30.41,East,90,3.1,8.3,22,0.00,,---,0.00,VWS V14.01,2013-04-03 19:18:00,
2013-04-03 15:24:00,34.2,-0.7,30.41,North,0,6.3,6.3,22,0.00,,---,0.00,VWS V14.01,2013-04-03 19:24:00,
2013-04-03 15:29:00,33.8,-1.0,30.41,ENE,68,5.8,6.3,22,0.00,,---,0.00,VWS V14.01,2013-04-03 19:29:00,
2013-04-03 15:34:00,34.2,-0.7,30.41,WSW,248,4.9,4.9,22,0.00,,---,0.00,VWS V14.01,2013-04-03 19:34:00,
2013-04-03 15:39:00,32.7,-1.0,30.41,NE,45,6.3,7.2,23,0.00,,---,0.00,VWS V14.01,2013-04-03 19:39:00,
2013-04-03 15:44:00,32.2,0.3,30.41,NE,45,5.4,5.4,25,0.00,,---,0.00,VWS V14.01,2013-04-03 19:44:00,
2013-04-03 15:49:00,33.6,1.6,30.41,North,0,3.1,3.1,25,0.00,,---,0.00,VWS V14.01,2013-04-03 19:49:00,
2013-04-03 15:54:00,34.7,2.5,30.41,SE,135,6.3,7.2,25,0.00,,---,0.00,VWS V14.01,2013-04-03 19:54:00,
2013-04-03 15:59:00,35.4,3.1,30.41,North,0,3.1,4.5,25,0.00,,---,0.00,VWS V14.01,2013-04-03 19:59:00,
2013-04-03 16:04:00,35.4,0.4,30.41,East,90,3.6,8.1,22,0.00,,---,0.00,VWS V14.01,2013-04-03 20:04:00,
2013-04-03 16:09:00,34.7,-0.2,30.41,NNW,338,4.0,6.3,22,0.00,,---,0.00,VWS V14.01,2013-04-03 20:09:00,
2013-04-03 16:14:00,34.7,-0.2,30.41,West,270,7.6,7.6,22,0.00,,---,0.00,VWS V14.01,2013-04-03 20:14:00,
2013-04-03 16:19:00,35.8,0.7,30.41,East,90,3.6,4.0,22,0.00,,---,0.00,VWS V14.01,2013-04-03 20:19:00,
2013-04-03 16:24:00,34.5,-0.4,30.41,NW,315,5.8,6.3,22,0.00,,---,0.00,VWS V14.01,2013-04-03 20:24:00,
2013-04-03 16:29:00,34.3,-0.6,30.41,NNE,22,4.0,7.6,22,0.00,,---,0.00,VWS V14.01,2013-04-03 20:29:00,
2013-04-03 16:34:00,35.1,0.1,30.41,South,180,4.0,8.3,22,0.00,,---,0.00,VWS V14.01,2013-04-03 20:34:00,
2013-04-03 16:39:00,35.4,0.4,30.41,WNW,292,2.7,4.5,22,0.00,,---,0.00,VWS V14.01,2013-04-03 20:39:00,
2013-04-03 16:44:00,33.8,-1.0,30.41,NE,45,5.8,8.7,22,0.00,,---,0.00,VWS V14.01,2013-04-03 20:44:00,
2013-04-03 16:49:00,34.0,-0.9,30.41,NNE,22,5.4,8.3,22,0.00,,---,0.00,VWS V14.01,2013-04-03 20:49:00,
2013-04-03 16:54:00,33.8,-1.0,30.41,SW,225,0.0,3.1,22,0.00,,---,0.00,VWS V14.01,2013-04-03 20:54:00,
2013-04-03 16:59:00,34.3,-0.6,30.41,NE,45,8.7,8.7,22,0.00,,---,0.00,VWS V14.01,2013-04-03 20:59:00,
2013-04-03 17:04:00,34.0,-0.9,30.41,North,0,5.4,5.4,22,0.00,,---,0.00,VWS V14.01,2013-04-03 21:04:00,
2013-04-03 17:09:00,34.0,-0.9,30.41,NW,315,5.8,7.2,22,0.00,,---,0.00,VWS V14.01,2013-04-03 21:09:00,
2013-04-03 17:14:00,34.0,-0.9,30.41,NNW,338,8.7,8.7,22,0.00,,---,0.00,VWS V14.01,2013-04-03 21:14:00,
2013-04-03 17:19:00,33.8,-1.0,30.41,East,90,5.4,7.2,22,0.00,,---,0.00,VWS V14.01,2013-04-03 21:19:00,
2013-04-03 17:25:00,33.8,-1.0,30.44,NW,315,2.7,5.8,22,0.00,,---,0.00,VWS V14.01,2013-04-03 21:25:00,
2013-04-03 17:30:00,34.2,-0.7,30.44,North,0,3.6,3.6,22,0.00,,---,0.00,VWS V14.01,2013-04-03 21:30:00,
2013-04-03 17:35:00,34.9,-0.1,30.44,East,90,5.4,5.4,22,0.00,,---,0.00,VWS V14.01,2013-04-03 21:35:00,
2013-04-03 17:39:00,34.2,-0.7,30.44,North,0,4.9,8.1,22,0.00,,---,0.00,VWS V14.01,2013-04-03 21:39:00,
2013-04-03 17:44:00,33.8,-1.0,30.44,NW,315,0.0,3.1,22,0.00,,---,0.00,VWS V14.01,2013-04-03 21:44:00,
2013-04-03 17:49:00,33.4,-0.4,30.44,SE,135,3.6,6.3,23,0.00,,---,0.00,VWS V14.01,2013-04-03 21:49:00,
2013-04-03 17:54:00,33.3,-0.5,30.44,NW,315,3.6,8.1,23,0.00,,---,0.00,VWS V14.01,2013-04-03 21:54:00,
2013-04-03 17:59:00,33.1,-0.7,30.44,SW,225,3.1,3.6,23,0.00,,---,0.00,VWS V14.01,2013-04-03 21:59:00,
2013-04-03 18:04:00,32.9,-0.8,30.44,East,90,2.2,4.0,23,0.00,,---,0.00,VWS V14.01,2013-04-03 22:04:00,
2013-04-03 18:09:00,33.3,-0.5,30.44,NNW,338,2.2,2.2,23,0.00,,---,0.00,VWS V14.01,2013-04-03 22:09:00,
2013-04-03 18:14:00,33.6,-0.2,30.44,East,90,3.1,4.5,23,0.00,,---,0.00,VWS V14.01,2013-04-03 22:14:00,
2013-04-03 18:20:00,33.4,-0.4,30.44,North,0,5.4,5.4,23,0.00,,---,0.00,VWS V14.01,2013-04-03 22:20:00,
2013-04-03 18:25:00,33.1,-0.7,30.47,NW,315,4.5,4.5,23,0.00,,---,0.00,VWS V14.01,2013-04-03 22:25:00,
2013-04-03 18:30:00,32.5,-1.1,30.47,NW,315,3.6,3.6,23,0.00,,---,0.00,VWS V14.01,2013-04-03 22:30:00,
2013-04-03 18:35:00,31.6,-1.9,30.47,NW,315,5.8,5.8,23,0.00,,---,0.00,VWS V14.01,2013-04-03 22:35:00,
2013-04-03 18:40:00,31.6,-1.9,30.47,NNW,338,0.0,0.0,23,0.00,,---,0.00,VWS V14.01,2013-04-03 22:40:00,
2013-04-03 18:45:00,31.5,-2.0,30.47,NW,315,5.8,5.8,23,0.00,,---,0.00,VWS V14.01,2013-04-03 22:45:00,
2013-04-03 18:50:00,31.1,-2.4,30.47,NW,315,4.0,4.0,23,0.00,,---,0.00,VWS V14.01,2013-04-03 22:50:00,
2013-04-03 18:55:00,31.1,-2.4,30.47,NW,315,2.2,3.1,23,0.00,,---,0.00,VWS V14.01,2013-04-03 22:55:00,
2013-04-03 19:00:00,30.7,-2.7,30.47,NW,315,3.1,3.6,23,0.00,,---,0.00,VWS V14.01,2013-04-03 23:00:00,
2013-04-03 19:05:00,30.2,-3.1,30.47,SW,225,3.6,3.6,23,0.00,,---,0.00,VWS V14.01,2013-04-03 23:05:00,
2013-04-03 19:10:00,30.2,-3.1,30.47,NNE,22,4.0,4.5,23,0.00,,---,0.00,VWS V14.01,2013-04-03 23:10:00,
2013-04-03 19:15:00,30.2,-3.1,30.47,NW,315,2.2,2.2,23,0.00,,---,0.00,VWS V14.01,2013-04-03 23:15:00,
2013-04-03 19:20:00,29.7,-3.6,30.47,NW,315,0.0,0.0,23,0.00,,---,0.00,VWS V14.01,2013-04-03 23:20:00,
2013-04-03 19:25:00,29.5,-3.7,30.47,NE,45,2.7,2.7,23,0.00,,---,0.00,VWS V14.01,2013-04-03 23:25:00,
2013-04-03 19:30:00,29.5,-3.7,30.47,NW,315,2.7,4.0,23,0.00,,---,0.00,VWS V14.01,2013-04-03 23:30:00,
2013-04-03 19:35:00,29.1,-4.1,30.47,SW,225,2.2,2.2,23,0.00,,---,0.00,VWS V14.01,2013-04-03 23:35:00,
2013-04-03 19:40:00,29.3,-3.9,30.47,South,180,2.7,2.7,23,0.00,,---,0.00,VWS V14.01,2013-04-03 23:40:00,
2013-04-03 19:45:00,28.9,-4.2,30.47,South,180,0.0,0.0,23,0.00,,---,0.00,VWS V14.01,2013-04-03 23:45:00,
2013-04-03 19:50:00,28.6,-4.5,30.47,NW,315,4.0,4.0,23,0.00,,---,0.00,VWS V14.01,2013-04-03 23:50:00,
2013-04-03 19:55:00,28.4,-4.7,30.47,West,270,0.0,2.7,23,0.00,,---,0.00,VWS V14.01,2013-04-03 23:55:00,
2013-04-03 20:00:00,28.2,-2.2,30.47,NNE,22,0.0,0.0,26,0.00,,---,0.00,VWS V14.01,2013-04-04 00:00:00,
2013-04-03 20:05:00,27.9,-2.6,30.47,NW,315,2.2,2.2,26,0.00,,---,0.00,VWS V14.01,2013-04-04 00:05:00,
2013-04-03 20:10:00,27.9,-2.6,30.47,NNW,338,0.0,0.0,26,0.00,,---,0.00,VWS V14.01,2013-04-04 00:10:00,
2013-04-03 20:15:00,27.7,-2.7,30.47,SW,225,0.0,0.0,26,0.00,,---,0.00,VWS V14.01,2013-04-04 00:15:00,
2013-04-03 20:20:00,27.3,-3.0,30.47,SW,225,0.0,0.0,26,0.00,,---,0.00,VWS V14.01,2013-04-04 00:20:00,
2013-04-03 20:25:00,27.1,-3.2,30.47,SW,225,0.0,0.0,26,0.00,,---,0.00,VWS V14.01,2013-04-04 00:25:00,
2013-04-03 20:30:00,27.0,-3.3,30.47,WSW,248,2.2,2.2,26,0.00,,---,0.00,VWS V14.01,2013-04-04 00:30:00,
2013-04-03 20:35:00,26.6,-3.7,30.47,SW,225,0.0,0.0,26,0.00,,---,0.00,VWS V14.01,2013-04-04 00:35:00,
2013-04-03 20:40:00,26.2,-4.0,30.44,SSW,202,0.0,0.0,26,0.00,,---,0.00,VWS V14.01,2013-04-04 00:40:00,
2013-04-03 20:45:00,26.4,-1.5,30.44,SW,225,0.0,0.0,29,0.00,,---,0.00,VWS V14.01,2013-04-04 00:45:00,
2013-04-03 20:50:00,25.7,-2.2,30.44,SW,225,0.0,0.0,29,0.00,,---,0.00,VWS V14.01,2013-04-04 00:50:00,
2013-04-03 20:55:00,25.5,-2.3,30.44,SW,225,0.0,0.0,29,0.00,,---,0.00,VWS V14.01,2013-04-04 00:55:00,
2013-04-03 21:00:00,25.0,-2.8,30.44,SW,225,0.0,0.0,29,0.00,,---,0.00,VWS V14.01,2013-04-04 01:00:00,
2013-04-03 21:05:00,24.4,-3.2,30.44,SW,225,0.0,0.0,29,0.00,,---,0.00,VWS V14.01,2013-04-04 01:05:00,
2013-04-03 21:10:00,23.9,-1.7,30.44,SW,225,0.0,0.0,32,0.00,,---,0.00,VWS V14.01,2013-04-04 01:10:00,
2013-04-03 21:15:00,23.9,-1.7,30.44,SW,225,0.0,0.0,32,0.00,,---,0.00,VWS V14.01,2013-04-04 01:15:00,
2013-04-03 21:20:00,24.1,-0.9,30.44,SW,225,0.0,0.0,33,0.00,,---,0.00,VWS V14.01,2013-04-04 01:20:00,
2013-04-03 21:25:00,23.7,-1.2,30.44,SW,225,0.0,0.0,33,0.00,,---,0.00,VWS V14.01,2013-04-04 01:25:00,
2013-04-03 21:30:00,23.7,-1.2,30.44,SW,225,0.0,0.0,33,0.00,,---,0.00,VWS V14.01,2013-04-04 01:30:00,
2013-04-03 21:35:00,23.5,-0.7,30.44,SW,225,0.0,0.0,34,0.00,,---,0.00,VWS V14.01,2013-04-04 01:35:00,
2013-04-03 21:40:00,24.3,0.6,30.44,East,90,0.0,0.0,35,0.00,,---,0.00,VWS V14.01,2013-04-04 01:40:00,
2013-04-03 21:45:00,24.1,0.4,30.44,East,90,0.0,0.0,35,0.00,,---,0.00,VWS V14.01,2013-04-04 01:45:00,
2013-04-03 21:50:00,24.1,0.4,30.44,ESE,112,0.0,0.0,35,0.00,,---,0.00,VWS V14.01,2013-04-04 01:50:00,
2013-04-03 21:55:00,23.9,0.2,30.44,SE,135,0.0,0.0,35,0.00,,---,0.00,VWS V14.01,2013-04-04 01:55:00,
2013-04-03 22:00:00,23.7,0.1,30.44,SE,135,0.0,0.0,35,0.00,,---,0.00,VWS V14.01,2013-04-04 02:00:00,
2013-04-03 22:05:00,23.5,0.5,30.44,SE,135,0.0,0.0,36,0.00,,---,0.00,VWS V14.01,2013-04-04 02:05:00,
2013-04-03 22:10:00,23.2,0.8,30.41,SE,135,0.0,0.0,37,0.00,,---,0.00,VWS V14.01,2013-04-04 02:10:00,
2013-04-03 22:15:00,22.8,0.5,30.41,SE,135,0.0,0.0,37,0.00,,---,0.00,VWS V14.01,2013-04-04 02:15:00,
2013-04-03 22:20:00,22.6,0.9,30.41,South,180,0.0,0.0,38,0.00,,---,0.00,VWS V14.01,2013-04-04 02:20:00,
2013-04-03 22:25:00,22.1,0.4,30.41,South,180,0.0,0.0,38,0.00,,---,0.00,VWS V14.01,2013-04-04 02:25:00,
2013-04-03 22:30:00,21.9,0.8,30.41,South,180,0.0,0.0,39,0.00,,---,0.00,VWS V14.01,2013-04-04 02:30:00,
2013-04-03 22:35:00,22.3,2.7,30.41,East,90,0.0,0.0,42,0.00,,---,0.00,VWS V14.01,2013-04-04 02:35:00,
2013-04-03 22:40:00,22.1,2.5,30.41,SSE,158,0.0,0.0,42,0.00,,---,0.00,VWS V14.01,2013-04-04 02:40:00,
2013-04-03 22:45:00,21.9,2.4,30.41,SSE,158,0.0,0.0,42,0.00,,---,0.00,VWS V14.01,2013-04-04 02:45:00,
2013-04-03 22:50:00,21.9,2.4,30.41,South,180,0.0,0.0,42,0.00,,---,0.00,VWS V14.01,2013-04-04 02:50:00,
2013-04-03 22:55:00,22.3,3.2,30.39,NE,45,0.0,0.0,43,0.00,,---,0.00,VWS V14.01,2013-04-04 02:55:00,
2013-04-03 23:00:00,22.6,3.5,30.39,East,90,0.0,0.0,43,0.00,,---,0.00,VWS V14.01,2013-04-04 03:00:00,
2013-04-03 23:05:00,22.3,3.2,30.39,ESE,112,0.0,0.0,43,0.00,,---,0.00,VWS V14.01,2013-04-04 03:05:00,
2013-04-03 23:10:00,21.9,2.9,30.39,ESE,112,0.0,0.0,43,0.00,,---,0.00,VWS V14.01,2013-04-04 03:10:00,
2013-04-03 23:15:00,21.9,2.9,30.39,SE,135,0.0,0.0,43,0.00,,---,0.00,VWS V14.01,2013-04-04 03:15:00,
2013-04-03 23:20:00,22.1,3.5,30.39,ESE,112,0.0,0.0,44,0.00,,---,0.00,VWS V14.01,2013-04-04 03:20:00,
2013-04-03 23:25:00,22.1,3.5,30.36,SE,135,0.0,0.0,44,0.00,,---,0.00,VWS V14.01,2013-04-04 03:25:00,
2013-04-03 23:30:00,21.9,3.4,30.36,SE,135,0.0,0.0,44,0.00,,---,0.00,VWS V14.01,2013-04-04 03:30:00,
2013-04-03 23:35:00,21.6,3.0,30.36,SE,135,0.0,0.0,44,0.00,,---,0.00,VWS V14.01,2013-04-04 03:35:00,
2013-04-03 23:40:00,21.4,2.9,30.36,SE,135,0.0,0.0,44,0.00,,---,0.00,VWS V14.01,2013-04-04 03:40:00,
2013-04-03 23:45:00,21.2,3.2,30.36,SSE,158,0.0,0.0,45,0.00,,---,0.00,VWS V14.01,2013-04-04 03:45:00,
2013-04-03 23:50:00,21.2,3.2,30.36,SE,135,0.0,0.0,45,0.00,,---,0.00,VWS V14.01,2013-04-04 03:50:00,
2013-04-03 23:55:00,21.2,3.7,30.36,SE,135,0.0,0.0,46,0.00,,---,0.00,VWS V14.01,2013-04-04 03:55:00,